createdAt,value
2022-09-12T00:01:25.986Z,62.99
2022-09-12T00:04:00.292Z,63.62
2022-09-12T00:06:34.044Z,63.76
2022-09-12T00:09:08.764Z,63.85
2022-09-12T00:11:44.236Z,63.46
2022-09-12T00:14:17.240Z,63.55
2022-09-12T00:16:44.789Z,63.60
2022-09-12T00:19:13.451Z,63.53
2022-09-12T00:21:42.862Z,63.63
2022-09-12T00:24:11.581Z,63.02
2022-09-12T00:26:39.125Z,63.44
2022-09-12T00:29:06.664Z,63.67
2022-09-12T00:31:34.475Z,63.50
2022-09-12T00:34:02.312Z,64.07
2022-09-12T00:36:31.032Z,64.02
2022-09-12T00:38:59.060Z,64.21
2022-09-12T00:41:38.047Z,64.17
2022-09-12T00:44:25.377Z,64.18
2022-09-12T00:47:13.784Z,65.06
2022-09-12T00:50:13.628Z,66.26
2022-09-12T00:52:58.588Z,64.76
2022-09-12T00:55:36.360Z,65.62
2022-09-12T00:58:28.169Z,65.57
2022-09-12T01:00:57.355Z,64.58
2022-09-12T01:03:26.124Z,64.17
2022-09-12T01:06:20.717Z,65.06
2022-09-12T01:08:48.586Z,65.86
2022-09-12T01:11:18.300Z,66.13
2022-09-12T01:13:47.052Z,66.32
2022-09-12T01:16:14.443Z,65.94
2022-09-12T01:19:26.108Z,66.01
2022-09-12T01:23:10.802Z,64.73
2022-09-12T01:26:50.782Z,65.22
2022-09-12T01:29:44.868Z,65.39
2022-09-12T01:32:53.813Z,65.11
2022-09-12T01:35:48.673Z,64.99
2022-09-12T01:38:54.087Z,64.88
2022-09-12T01:42:10.143Z,64.19
2022-09-12T01:45:18.984Z,65.19
2022-09-12T01:48:20.294Z,64.64
2022-09-12T01:51:07.420Z,64.35
2022-09-12T01:54:23.839Z,64.58
2022-09-12T01:56:58.422Z,65.07
2022-09-12T01:59:43.558Z,65.36
2022-09-12T02:02:25.258Z,64.20
2022-09-12T02:05:20.940Z,65.21
2022-09-12T02:08:29.797Z,65.51
2022-09-12T02:11:12.938Z,65.50
2022-09-12T02:13:55.873Z,65.24
2022-09-12T02:16:37.007Z,65.12
2022-09-12T02:19:20.288Z,64.70
2022-09-12T02:22:02.696Z,65.27
2022-09-12T02:24:40.560Z,65.17
2022-09-12T02:27:24.541Z,66.04
2022-09-12T02:29:52.251Z,66.17
2022-09-12T02:32:55.897Z,66.24
2022-09-12T02:35:53.925Z,66.10
2022-09-12T02:38:45.955Z,66.02
2022-09-12T02:41:19.385Z,66.16
2022-09-12T02:43:49.710Z,67.80
2022-09-12T02:46:28.700Z,67.33
2022-09-12T02:48:56.729Z,66.69
2022-09-12T02:51:24.775Z,66.43
2022-09-12T02:53:53.292Z,66.00
2022-09-12T02:56:31.112Z,66.07
2022-09-12T02:59:09.716Z,66.69
2022-09-12T03:02:45.396Z,67.44
2022-09-12T03:05:55.300Z,67.14
2022-09-12T03:09:07.397Z,66.69
2022-09-12T03:12:39.660Z,67.79
2022-09-12T03:16:12.531Z,67.49
2022-09-12T03:19:29.159Z,67.16
2022-09-12T03:22:29.089Z,67.41
2022-09-12T03:25:28.013Z,68.59
2022-09-12T03:28:17.332Z,67.89
2022-09-12T03:30:49.812Z,68.21
2022-09-12T03:33:26.311Z,67.63
2022-09-12T03:35:54.932Z,67.75
2022-09-12T03:38:22.223Z,67.83
2022-09-12T03:40:54.559Z,67.69
2022-09-12T03:43:22.281Z,68.06
2022-09-12T03:45:53.376Z,68.37
2022-09-12T03:48:21.104Z,68.44
2022-09-12T03:50:48.376Z,68.05
2022-09-12T03:53:17.373Z,68.28
2022-09-12T03:55:45.414Z,68.07
2022-09-12T03:58:13.508Z,68.10
2022-09-12T04:00:40.998Z,68.39
2022-09-12T04:03:09.025Z,69.00
2022-09-12T04:05:37.281Z,68.67
2022-09-12T04:08:04.639Z,69.29
2022-09-12T04:10:32.805Z,69.17
2022-09-12T04:13:00.230Z,68.94
2022-09-12T04:15:27.499Z,68.46
2022-09-12T04:17:54.787Z,68.91
2022-09-12T04:20:22.116Z,68.70
2022-09-12T04:22:49.383Z,68.73
2022-09-12T04:25:17.293Z,68.79
2022-09-12T04:27:44.597Z,68.79
2022-09-12T04:30:12.903Z,69.42
2022-09-12T04:32:40.942Z,69.74
2022-09-12T04:35:08.557Z,70.17
2022-09-12T04:37:35.901Z,69.16
2022-09-12T04:40:03.662Z,69.07
2022-09-12T04:42:31.839Z,69.94
2022-09-12T04:44:59.100Z,69.66
2022-09-12T04:47:26.343Z,69.49
2022-09-12T04:49:53.992Z,68.97
2022-09-12T04:52:21.284Z,69.79
2022-09-12T04:54:48.535Z,69.85
2022-09-12T04:57:16.588Z,70.24
2022-09-12T04:59:44.047Z,69.94
2022-09-12T05:02:11.335Z,69.54
2022-09-12T05:04:38.663Z,70.13
2022-09-12T05:07:06.032Z,69.34
2022-09-12T05:09:33.512Z,69.63
2022-09-12T05:12:05.355Z,69.33
2022-09-12T05:14:34.704Z,69.69
2022-09-12T05:17:03.455Z,69.97
2022-09-12T05:19:32.855Z,69.31
2022-09-12T05:22:00.395Z,69.60
2022-09-12T05:24:28.372Z,69.67
2022-09-12T05:26:55.984Z,70.32
2022-09-12T05:29:25.077Z,69.58
2022-09-12T05:31:52.855Z,69.23
2022-09-12T05:34:21.552Z,69.22
2022-09-12T05:36:49.271Z,69.44
2022-09-12T05:39:16.773Z,69.71
2022-09-12T05:41:44.106Z,69.68
2022-09-12T05:44:14.569Z,69.70
2022-09-12T05:46:48.635Z,69.75
2022-09-12T05:49:15.896Z,69.13
2022-09-12T05:51:45.985Z,69.75
2022-09-12T05:54:20.427Z,69.08
2022-09-12T05:56:49.116Z,68.54
2022-09-12T05:59:21.303Z,68.71
2022-09-12T06:01:49.124Z,68.78
2022-09-12T06:04:17.149Z,68.59
2022-09-12T06:06:46.528Z,68.42
2022-09-12T06:09:17.999Z,68.58
2022-09-12T06:11:46.814Z,68.34
2022-09-12T06:14:17.568Z,68.94
2022-09-12T06:16:45.427Z,68.80
2022-09-12T06:19:26.185Z,68.76
2022-09-12T06:21:53.929Z,68.44
2022-09-12T06:24:21.899Z,68.84
2022-09-12T06:26:53.447Z,68.71
2022-09-12T06:29:24.057Z,68.45
2022-09-12T06:31:51.371Z,68.08
2022-09-12T06:34:19.557Z,68.27
2022-09-12T06:36:50.135Z,68.31
2022-09-12T06:39:21.064Z,68.24
2022-09-12T06:41:52.513Z,68.01
2022-09-12T06:44:23.053Z,68.10
2022-09-12T06:46:50.628Z,67.91
2022-09-12T06:49:18.117Z,67.58
2022-09-12T06:51:45.730Z,67.23
2022-09-12T06:54:16.777Z,67.27
2022-09-12T06:56:45.464Z,67.57
2022-09-12T06:59:13.175Z,67.73
2022-09-12T07:01:41.780Z,67.63
2022-09-12T07:04:09.933Z,67.50
2022-09-12T07:06:44.589Z,67.27
2022-09-12T07:09:17.979Z,67.59
2022-09-12T07:11:46.675Z,67.68
2022-09-12T07:14:15.865Z,67.01
2022-09-12T07:16:43.839Z,67.26
2022-09-12T07:19:12.075Z,67.16
2022-09-12T07:21:40.431Z,66.86
2022-09-12T07:24:10.750Z,67.11
2022-09-12T07:26:40.749Z,67.13
2022-09-12T07:29:36.403Z,66.87
2022-09-12T07:32:05.982Z,66.15
2022-09-12T07:34:35.087Z,66.51
2022-09-12T07:37:02.488Z,66.65
2022-09-12T07:39:29.796Z,66.28
2022-09-12T07:41:57.871Z,66.62
2022-09-12T07:44:26.875Z,66.46
2022-09-12T07:46:54.143Z,66.56
2022-09-12T07:49:22.203Z,66.42
2022-09-12T07:51:49.829Z,65.96
2022-09-12T07:54:17.706Z,65.85
2022-09-12T07:56:46.686Z,65.47
2022-09-12T07:59:21.541Z,65.63
2022-09-12T08:01:57.425Z,65.41
2022-09-12T08:04:24.924Z,65.04
2022-09-12T08:06:52.254Z,64.72
2022-09-12T08:09:19.522Z,64.59
2022-09-12T08:11:49.322Z,64.34
2022-09-12T08:14:17.759Z,64.15
2022-09-12T08:16:45.032Z,64.00
2022-09-12T08:19:12.370Z,64.25
2022-09-12T08:21:39.636Z,63.53
2022-09-12T08:24:07.602Z,63.05
2022-09-12T08:26:38.883Z,62.73
2022-09-12T08:29:06.191Z,62.52
2022-09-12T08:31:37.093Z,62.18
2022-09-12T08:34:06.522Z,61.99
2022-09-12T08:36:35.226Z,62.16
2022-09-12T08:39:07.592Z,62.16
2022-09-12T08:41:48.270Z,61.16
2022-09-12T08:45:17.973Z,60.93
2022-09-12T08:47:47.472Z,60.96
2022-09-12T08:50:22.346Z,60.76
2022-09-12T08:53:11.613Z,60.84
2022-09-12T08:55:56.039Z,60.08
2022-09-12T08:58:27.220Z,60.05
2022-09-12T09:01:38.481Z,59.57
2022-09-12T09:04:46.093Z,59.77
2022-09-12T09:08:36.075Z,59.08
2022-09-12T09:12:23.199Z,57.97
2022-09-12T09:15:41.904Z,58.51
2022-09-12T09:18:28.810Z,57.69
2022-09-12T09:21:57.468Z,57.19
2022-09-12T09:24:45.880Z,57.61
2022-09-12T09:27:55.912Z,56.67
2022-09-12T09:30:23.799Z,56.97
2022-09-12T09:32:58.621Z,55.77
2022-09-12T09:35:52.381Z,56.03
2022-09-12T09:38:54.958Z,54.89
2022-09-12T09:42:15.499Z,55.57
2022-09-12T09:44:44.228Z,54.30
2022-09-12T09:47:12.409Z,54.87
2022-09-12T09:49:40.751Z,54.10
2022-09-12T09:52:14.561Z,52.75
2022-09-12T09:54:57.437Z,53.61
2022-09-12T09:57:37.112Z,51.49
2022-09-12T10:00:38.852Z,52.02
2022-09-12T10:03:39.108Z,51.72
2022-09-12T10:06:34.360Z,50.85
2022-09-12T10:09:15.738Z,50.18
2022-09-12T10:11:45.923Z,49.89
2022-09-12T10:14:41.808Z,49.44
2022-09-12T10:17:44.678Z,49.83
2022-09-12T10:20:44.887Z,49.33
2022-09-12T10:23:37.864Z,48.18
2022-09-12T10:26:16.650Z,49.79
2022-09-12T10:29:31.652Z,46.22
2022-09-12T10:32:05.786Z,46.12
2022-09-12T10:34:45.436Z,46.51
2022-09-12T10:37:37.378Z,46.00
2022-09-12T10:40:22.337Z,44.57
2022-09-12T10:43:00.311Z,44.92
2022-09-12T10:45:35.971Z,41.92
2022-09-12T10:48:33.253Z,42.67
2022-09-12T10:51:01.998Z,43.48
2022-09-12T10:53:43.725Z,41.92
2022-09-12T10:56:39.792Z,41.85
2022-09-12T11:00:07.704Z,41.62
2022-09-12T11:04:08.737Z,40.58
2022-09-12T11:07:32.988Z,39.44
2022-09-12T11:11:10.033Z,39.53
2022-09-12T11:14:43.539Z,38.56
2022-09-12T11:18:33.745Z,37.30
2022-09-12T11:21:50.533Z,36.98
2022-09-12T11:24:55.009Z,36.56
2022-09-12T11:27:45.218Z,35.77
2022-09-12T11:30:18.031Z,33.86
2022-09-12T11:33:26.771Z,34.33
2022-09-12T11:35:57.302Z,34.92
2022-09-12T11:39:17.645Z,33.43
2022-09-12T11:41:51.250Z,33.99
2022-09-12T11:44:41.571Z,32.41
2022-09-12T11:47:13.951Z,32.54
2022-09-12T11:49:50.076Z,31.88
2022-09-12T11:52:28.057Z,31.47
2022-09-12T11:55:17.172Z,29.51
2022-09-12T11:57:58.562Z,28.79
2022-09-12T12:00:37.589Z,26.75
2022-09-12T12:03:20.837Z,27.55
2022-09-12T12:06:22.119Z,29.81
2022-09-12T12:08:50.637Z,27.73
2022-09-12T12:11:48.889Z,27.94
2022-09-12T12:14:44.555Z,25.94
2022-09-12T12:17:30.433Z,27.31
2022-09-12T12:20:08.515Z,27.81
2022-09-12T12:22:36.394Z,27.18
2022-09-12T12:25:29.478Z,26.67
2022-09-12T12:28:01.820Z,26.39
2022-09-12T12:30:33.402Z,25.26
2022-09-12T12:33:26.962Z,25.10
2022-09-12T12:36:00.201Z,24.91
2022-09-12T12:38:36.452Z,25.75
2022-09-12T12:41:18.828Z,24.95
2022-09-12T12:43:53.148Z,23.45
2022-09-12T12:46:28.552Z,24.32
2022-09-12T12:49:11.913Z,25.48
2022-09-12T12:51:57.179Z,22.77
2022-09-12T12:54:45.216Z,23.96
2022-09-12T12:57:51.055Z,23.18
2022-09-12T13:00:21.108Z,22.84
2022-09-12T13:03:06.647Z,20.79
2022-09-12T13:06:00.186Z,21.05
2022-09-12T13:08:46.868Z,21.07
2022-09-12T13:11:37.453Z,20.04
2022-09-12T13:14:28.410Z,21.66
2022-09-12T13:17:04.048Z,19.26
2022-09-12T13:19:36.802Z,21.20
2022-09-12T13:22:11.021Z,19.45
2022-09-12T13:24:51.538Z,20.37
2022-09-12T13:27:25.670Z,20.37
2022-09-12T13:30:15.538Z,19.47
2022-09-12T13:32:43.847Z,19.22
2022-09-12T13:36:18.269Z,19.17
2022-09-12T13:39:20.082Z,20.27
2022-09-12T13:42:33.545Z,21.37
2022-09-12T13:45:23.212Z,20.47
2022-09-12T13:48:02.986Z,19.25
2022-09-12T13:50:55.337Z,20.70
2022-09-12T13:53:29.058Z,20.19
2022-09-12T13:56:01.329Z,19.33
2022-09-12T13:58:36.982Z,19.83
2022-09-12T14:01:16.207Z,20.95
2022-09-12T14:04:12.027Z,20.55
2022-09-12T14:06:53.149Z,19.96
2022-09-12T14:09:38.561Z,19.41
2022-09-12T14:12:29.517Z,19.78
2022-09-12T14:14:57.289Z,20.89
2022-09-12T14:17:39.702Z,21.78
2022-09-12T14:20:16.524Z,21.74
2022-09-12T14:22:50.917Z,20.10
2022-09-12T14:25:25.149Z,20.74
2022-09-12T14:27:57.408Z,21.33
2022-09-12T14:30:37.611Z,21.42
2022-09-12T14:33:10.629Z,21.12
2022-09-12T14:36:27.484Z,20.28
2022-09-12T14:39:38.541Z,19.69
2022-09-12T14:42:27.101Z,20.50
2022-09-12T14:45:04.046Z,20.58
2022-09-12T14:47:42.053Z,21.00
2022-09-12T14:50:29.700Z,20.22
2022-09-12T14:53:36.971Z,20.06
2022-09-12T14:56:13.634Z,19.81
2022-09-12T14:58:42.573Z,20.09
2022-09-12T15:01:12.167Z,20.31
2022-09-12T15:03:46.033Z,19.56
2022-09-12T15:06:36.785Z,20.01
2022-09-12T15:09:13.125Z,19.38
2022-09-12T15:11:40.626Z,19.96
2022-09-12T15:14:14.235Z,21.05
2022-09-12T15:16:42.233Z,21.30
2022-09-12T15:19:09.683Z,21.71
2022-09-12T15:21:37.564Z,21.20
2022-09-12T15:24:05.147Z,21.36
2022-09-12T15:26:32.412Z,21.32
2022-09-12T15:28:59.920Z,21.49
2022-09-12T15:31:32.289Z,21.84
2022-09-12T15:34:02.489Z,21.22
2022-09-12T15:36:30.027Z,21.77
2022-09-12T15:38:57.546Z,20.90
2022-09-12T15:41:37.373Z,21.63
2022-09-12T15:44:08.016Z,20.90
2022-09-12T15:46:35.499Z,21.88
2022-09-12T15:49:02.958Z,21.87
2022-09-12T15:51:30.328Z,22.11
2022-09-12T15:53:57.608Z,23.45
2022-09-12T15:56:24.908Z,22.15
2022-09-12T15:58:59.148Z,21.93
2022-09-12T16:01:29.254Z,22.63
2022-09-12T16:03:56.832Z,22.54
2022-09-12T16:06:25.153Z,22.43
2022-09-12T16:08:52.484Z,22.77
2022-09-12T16:11:26.005Z,23.14
2022-09-12T16:13:55.051Z,23.56
2022-09-12T16:16:22.917Z,24.00
2022-09-12T16:18:50.364Z,24.53
2022-09-12T16:21:18.048Z,25.38
2022-09-12T16:23:47.340Z,24.75
2022-09-12T16:26:16.885Z,25.95
2022-09-12T16:28:44.467Z,25.83
2022-09-12T16:31:15.659Z,25.99
2022-09-12T16:33:43.006Z,26.37
2022-09-12T16:36:15.708Z,26.21
2022-09-12T16:39:01.530Z,26.52
2022-09-12T16:41:29.151Z,26.88
2022-09-12T16:43:56.561Z,27.19
2022-09-12T16:46:28.840Z,26.84
2022-09-12T16:48:58.759Z,27.23
2022-09-12T16:51:37.604Z,27.37
2022-09-12T16:54:05.183Z,27.79
2022-09-12T16:56:32.477Z,27.64
2022-09-12T16:59:00.899Z,27.49
2022-09-12T17:01:28.370Z,28.02
2022-09-12T17:03:58.607Z,28.47
2022-09-12T17:06:26.967Z,28.55
2022-09-12T17:09:00.770Z,28.53
2022-09-12T17:11:38.150Z,28.66
2022-09-12T17:14:08.739Z,29.18
2022-09-12T17:16:51.548Z,29.24
2022-09-12T17:19:28.131Z,31.67
2022-09-12T17:21:57.463Z,29.80
2022-09-12T17:24:26.734Z,29.53
2022-09-12T17:26:54.541Z,29.50
2022-09-12T17:29:22.082Z,29.82
2022-09-12T17:31:49.648Z,29.95
2022-09-12T17:34:17.745Z,29.89
2022-09-12T17:36:46.227Z,30.42
2022-09-12T17:39:14.603Z,30.59
2022-09-12T17:41:42.837Z,30.95
2022-09-12T17:44:15.163Z,31.68
2022-09-12T17:46:43.256Z,31.64
2022-09-12T17:49:18.531Z,31.95
2022-09-12T17:51:45.932Z,32.04
2022-09-12T17:54:20.804Z,31.93
2022-09-12T17:56:49.772Z,32.83
2022-09-12T17:59:22.159Z,32.58
2022-09-12T18:02:08.592Z,32.30
2022-09-12T18:04:36.021Z,33.00
2022-09-12T18:07:04.983Z,33.13
2022-09-12T18:09:32.648Z,33.24
2022-09-12T18:11:59.948Z,33.54
2022-09-12T18:14:29.079Z,33.38
2022-09-12T18:16:57.308Z,33.35
2022-09-12T18:19:25.224Z,33.68
2022-09-12T18:21:53.403Z,34.16
2022-09-12T18:24:21.008Z,34.17
2022-09-12T18:26:49.393Z,34.31
2022-09-12T18:29:17.602Z,34.40
2022-09-12T18:31:49.173Z,35.15
2022-09-12T18:34:18.061Z,34.82
2022-09-12T18:36:50.870Z,35.09
2022-09-12T18:39:18.534Z,35.16
2022-09-12T18:41:46.407Z,35.58
2022-09-12T18:44:14.239Z,35.98
2022-09-12T18:46:41.865Z,36.70
2022-09-12T18:49:09.593Z,37.21
2022-09-12T18:51:39.957Z,37.99
2022-09-12T18:54:14.365Z,38.45
2022-09-12T18:56:43.864Z,38.88
2022-09-12T18:59:15.180Z,38.76
2022-09-12T19:01:43.697Z,39.40
2022-09-12T19:04:14.402Z,39.58
2022-09-12T19:06:48.580Z,40.25
2022-09-12T19:09:20.994Z,40.43
2022-09-12T19:11:49.661Z,41.19
2022-09-12T19:14:26.165Z,41.61
2022-09-12T19:16:54.165Z,42.01
2022-09-12T19:19:21.916Z,41.94
2022-09-12T19:21:49.187Z,42.44
2022-09-12T19:24:17.225Z,42.90
2022-09-12T19:26:45.403Z,44.27
2022-09-12T19:29:14.675Z,44.45
2022-09-12T19:31:43.148Z,44.92
2022-09-12T19:34:11.569Z,44.77
2022-09-12T19:36:47.706Z,44.67
2022-09-12T19:39:19.625Z,44.99
2022-09-12T19:41:47.886Z,45.85
2022-09-12T19:44:15.245Z,45.87
2022-09-12T19:46:42.832Z,45.90
2022-09-12T19:49:12.797Z,46.59
2022-09-12T19:51:40.668Z,46.26
2022-09-12T19:54:08.071Z,46.19
2022-09-12T19:56:35.384Z,46.94
2022-09-12T19:59:02.855Z,47.17
2022-09-12T20:01:30.247Z,47.14
2022-09-12T20:03:58.893Z,47.81
2022-09-12T20:06:27.414Z,48.19
2022-09-12T20:08:56.722Z,48.60
2022-09-12T20:11:25.795Z,47.82
2022-09-12T20:13:53.547Z,49.06
2022-09-12T20:16:29.356Z,49.30
2022-09-12T20:19:08.387Z,49.30
2022-09-12T20:21:36.939Z,48.96
2022-09-12T20:24:12.613Z,49.18
2022-09-12T20:26:41.255Z,49.10
2022-09-12T20:29:10.111Z,49.08
2022-09-12T20:31:40.876Z,49.11
2022-09-12T20:34:19.548Z,49.49
2022-09-12T20:36:48.100Z,50.12
2022-09-12T20:39:20.851Z,50.06
2022-09-12T20:41:48.685Z,49.41
2022-09-12T20:44:16.608Z,49.77
2022-09-12T20:46:43.962Z,49.56
2022-09-12T20:49:11.384Z,49.78
2022-09-12T20:51:38.936Z,49.43
2022-09-12T20:54:07.831Z,48.92
2022-09-12T20:56:37.606Z,48.89
2022-09-12T20:59:05.822Z,48.47
2022-09-12T21:01:34.048Z,48.18
2022-09-12T21:04:02.176Z,48.77
2022-09-12T21:06:30.444Z,48.61
2022-09-12T21:08:59.795Z,48.66
2022-09-12T21:11:29.729Z,48.79
2022-09-12T21:13:58.143Z,48.61
2022-09-12T21:16:25.500Z,48.37
2022-09-12T21:18:59.528Z,48.71
2022-09-12T21:21:27.391Z,49.37
2022-09-12T21:24:02.660Z,49.95
2022-09-12T21:26:30.643Z,49.82
2022-09-12T21:28:58.589Z,49.47
2022-09-12T21:31:26.898Z,49.73
2022-09-12T21:33:54.454Z,50.14
2022-09-12T21:36:21.868Z,50.84
2022-09-12T21:38:50.050Z,50.24
2022-09-12T21:41:18.380Z,49.80
2022-09-12T21:43:45.813Z,49.77
2022-09-12T21:46:14.215Z,50.31
2022-09-12T21:48:43.398Z,50.85
2022-09-12T21:51:11.532Z,51.32
2022-09-12T21:53:38.802Z,50.82
2022-09-12T21:56:08.910Z,50.86
2022-09-12T21:58:37.702Z,50.81
2022-09-12T22:01:08.570Z,51.60
2022-09-12T22:03:35.924Z,52.11
2022-09-12T22:06:06.776Z,52.32
2022-09-12T22:08:36.105Z,52.56
2022-09-12T22:11:09.569Z,53.21
2022-09-12T22:13:43.339Z,53.66
2022-09-12T22:16:11.469Z,53.69
2022-09-12T22:18:38.996Z,54.62
2022-09-12T22:21:17.041Z,54.25
2022-09-12T22:24:03.518Z,54.13
2022-09-12T22:26:37.253Z,53.92
2022-09-12T22:29:04.499Z,53.89
2022-09-12T22:31:32.057Z,54.49
2022-09-12T22:33:59.618Z,53.82
2022-09-12T22:36:31.283Z,54.51
2022-09-12T22:39:00.227Z,53.95
2022-09-12T22:41:28.478Z,54.22
2022-09-12T22:43:57.404Z,54.50
2022-09-12T22:46:26.369Z,54.71
2022-09-12T22:48:55.716Z,54.65
2022-09-12T22:51:23.136Z,54.33
2022-09-12T22:53:51.537Z,55.00
2022-09-12T22:56:19.209Z,54.22
2022-09-12T22:58:46.577Z,54.81
2022-09-12T23:01:14.047Z,54.92
2022-09-12T23:03:41.487Z,55.49
2022-09-12T23:06:10.012Z,54.96
2022-09-12T23:08:40.661Z,55.19
2022-09-12T23:11:19.157Z,55.21
2022-09-12T23:13:49.909Z,55.09
2022-09-12T23:16:23.573Z,55.64
2022-09-12T23:18:52.634Z,55.65
2022-09-12T23:21:22.356Z,55.71
2022-09-12T23:23:50.026Z,55.93
2022-09-12T23:26:28.157Z,55.45
2022-09-12T23:29:02.211Z,55.35
2022-09-12T23:31:33.366Z,55.60
2022-09-12T23:34:06.195Z,55.78
2022-09-12T23:36:35.156Z,55.90
2022-09-12T23:39:02.559Z,56.43
2022-09-12T23:41:29.865Z,56.10
2022-09-12T23:43:58.584Z,55.77
2022-09-12T23:46:25.866Z,56.07
2022-09-12T23:48:53.573Z,56.55
2022-09-12T23:51:24.252Z,56.53
2022-09-12T23:53:51.571Z,56.68
2022-09-12T23:56:18.829Z,56.54
2022-09-12T23:58:46.089Z,56.42
